createdAt,value
2022-09-11T00:10:43.862Z,95.0
2022-09-11T00:24:43.897Z,95.0
2022-09-11T00:38:44.604Z,96.0
2022-09-11T00:52:43.917Z,97.0
2022-09-11T01:08:46.930Z,96.0
2022-09-11T01:22:47.199Z,97.0
2022-09-11T01:36:47.523Z,97.0
2022-09-11T01:50:47.592Z,97.0
2022-09-11T02:04:47.686Z,97.0
2022-09-11T02:18:47.643Z,98.0
2022-09-11T02:32:47.723Z,98.0
2022-09-11T02:46:47.904Z,98.0
2022-09-11T03:00:47.831Z,98.0
2022-09-11T03:14:47.897Z,98.0
2022-09-11T03:28:47.889Z,99.0
2022-09-11T03:42:47.921Z,99.0
2022-09-11T03:56:47.936Z,99.0
2022-09-11T04:10:48.171Z,99.0
2022-09-11T04:24:48.295Z,99.0
2022-09-11T04:38:48.339Z,99.0
2022-09-11T04:53:48.423Z,99.0
2022-09-11T05:08:48.489Z,99.0
2022-09-11T05:23:48.496Z,98.0
2022-09-11T05:38:48.581Z,98.0
2022-09-11T05:53:48.584Z,99.0
2022-09-11T06:08:48.596Z,98.0
2022-09-11T06:23:48.624Z,98.0
2022-09-11T06:38:48.681Z,98.0
2022-09-11T06:53:48.701Z,96.0
2022-09-11T07:08:48.776Z,97.0
2022-09-11T07:23:48.726Z,82.0
2022-09-11T07:38:48.774Z,73.0
2022-09-11T07:53:48.812Z,69.0
2022-09-11T08:08:48.837Z,64.0
2022-09-11T08:23:48.880Z,60.0
2022-09-11T08:38:48.882Z,52.0
2022-09-11T08:53:48.991Z,56.0
2022-09-11T09:08:49.214Z,52.0
2022-09-11T09:23:49.238Z,50.0
2022-09-11T09:38:49.249Z,47.0
2022-09-11T09:53:49.235Z,47.0
2022-09-11T10:08:49.324Z,49.0
2022-09-11T10:23:49.391Z,47.0
2022-09-11T10:38:49.353Z,45.0
2022-09-11T10:53:49.344Z,48.0
2022-09-11T11:08:49.393Z,48.0
2022-09-11T11:24:49.399Z,44.0
2022-09-11T11:39:49.458Z,43.0
2022-09-11T11:54:49.490Z,46.0
2022-09-11T12:09:49.496Z,45.0
2022-09-11T12:24:49.505Z,42.0
2022-09-11T12:40:49.549Z,43.0
2022-09-11T12:56:49.529Z,46.0
2022-09-11T13:11:49.585Z,45.0
2022-09-11T13:27:49.630Z,45.0
2022-09-11T13:43:49.608Z,41.0
2022-09-11T13:58:53.416Z,44.0
2022-09-11T14:13:49.663Z,40.0
2022-09-11T14:29:49.675Z,42.0
2022-09-11T14:44:49.663Z,44.0
2022-09-11T15:00:49.698Z,45.0
2022-09-11T15:15:49.725Z,46.0
2022-09-11T15:31:49.696Z,47.0
2022-09-11T15:46:49.719Z,46.0
2022-09-11T16:01:49.750Z,48.0
2022-09-11T16:16:49.723Z,52.0
2022-09-11T16:31:49.770Z,56.0
2022-09-11T16:46:49.733Z,65.0
2022-09-11T17:01:49.786Z,72.0
2022-09-11T17:16:49.799Z,75.0
2022-09-11T17:31:57.496Z,78.0
2022-09-11T17:48:49.784Z,82.0
2022-09-11T18:03:49.761Z,85.0
2022-09-11T18:18:49.765Z,86.0
2022-09-11T18:32:50.006Z,86.0
2022-09-11T18:46:49.816Z,86.0
2022-09-11T19:00:49.966Z,86.0
2022-09-11T19:15:49.964Z,84.0
2022-09-11T19:29:49.929Z,85.0
2022-09-11T19:43:49.979Z,87.0
2022-09-11T19:57:49.997Z,87.0
2022-09-11T20:11:49.980Z,87.0
2022-09-11T20:25:49.998Z,87.0
2022-09-11T20:39:50.124Z,86.0
2022-09-11T20:53:50.043Z,88.0
2022-09-11T21:07:50.117Z,90.0
2022-09-11T21:21:50.170Z,90.0
2022-09-11T21:35:50.174Z,86.0
2022-09-11T21:49:50.184Z,89.0
2022-09-11T22:03:50.213Z,90.0
2022-09-11T22:17:50.213Z,91.0
2022-09-11T22:31:50.262Z,90.0
2022-09-11T22:45:50.253Z,91.0
2022-09-11T22:59:50.230Z,91.0
2022-09-11T23:13:50.294Z,91.0
2022-09-11T23:27:50.316Z,93.0
2022-09-11T23:41:50.299Z,93.0
2022-09-11T23:55:50.312Z,92.0
